createdAt,value
2023-03-13T00:01:13.735Z,7.30
2023-03-13T00:03:40.472Z,7.30
2023-03-13T00:06:07.382Z,7.30
2023-03-13T00:08:34.111Z,7.40
2023-03-13T00:11:06.245Z,7.40
2023-03-13T00:13:33.175Z,7.50
2023-03-13T00:16:05.489Z,7.50
2023-03-13T00:18:32.420Z,7.40
2023-03-13T00:21:00.792Z,7.50
2023-03-13T00:23:27.960Z,7.50
2023-03-13T00:26:25.370Z,7.50
2023-03-13T00:28:53.083Z,7.50
2023-03-13T00:31:25.501Z,7.50
2023-03-13T00:33:54.432Z,7.50
2023-03-13T00:36:27.218Z,7.50
2023-03-13T00:38:55.240Z,7.50
2023-03-13T00:41:28.058Z,7.50
2023-03-13T00:43:55.611Z,7.50
2023-03-13T00:46:24.724Z,7.50
2023-03-13T00:48:52.539Z,7.40
2023-03-13T00:51:20.973Z,7.40
2023-03-13T00:53:48.218Z,7.40
2023-03-13T00:56:17.465Z,7.40
2023-03-13T00:58:45.636Z,7.40
2023-03-13T01:01:17.339Z,7.30
2023-03-13T01:03:49.575Z,7.30
2023-03-13T01:06:19.593Z,7.30
2023-03-13T01:08:46.622Z,7.30
2023-03-13T01:11:22.567Z,7.30
2023-03-13T01:13:50.680Z,7.30
2023-03-13T01:16:20.033Z,7.30
2023-03-13T01:18:49.109Z,7.30
2023-03-13T01:21:17.049Z,7.30
2023-03-13T01:23:44.402Z,7.30
2023-03-13T01:26:11.350Z,7.30
2023-03-13T01:28:38.751Z,7.30
2023-03-13T01:31:27.142Z,7.30
2023-03-13T01:34:00.493Z,7.30
2023-03-13T01:36:28.496Z,7.30
2023-03-13T01:38:58.094Z,7.30
2023-03-13T01:41:27.427Z,7.30
2023-03-13T01:43:55.589Z,7.30
2023-03-13T01:46:40.580Z,7.30
2023-03-13T01:49:09.937Z,7.20
2023-03-13T01:51:39.439Z,7.30
2023-03-13T01:54:15.355Z,7.30
2023-03-13T01:57:20.373Z,7.30
2023-03-13T01:59:52.963Z,7.30
2023-03-13T02:02:21.309Z,7.20
2023-03-13T02:04:52.996Z,7.30
2023-03-13T02:07:31.063Z,7.20
2023-03-13T02:09:57.941Z,7.30
2023-03-13T02:12:35.655Z,7.20
2023-03-13T02:15:07.059Z,7.20
2023-03-13T02:17:35.746Z,7.20
2023-03-13T02:20:03.873Z,7.30
2023-03-13T02:22:42.583Z,7.30
2023-03-13T02:25:25.439Z,7.30
2023-03-13T02:28:02.289Z,7.30
2023-03-13T02:30:29.277Z,7.30
2023-03-13T02:32:56.464Z,7.30
2023-03-13T02:35:24.070Z,7.30
2023-03-13T02:38:03.922Z,7.30
2023-03-13T02:40:34.975Z,7.30
2023-03-13T02:43:04.906Z,7.30
2023-03-13T02:45:31.578Z,7.30
2023-03-13T02:47:58.317Z,7.30
2023-03-13T02:50:25.049Z,7.30
2023-03-13T02:52:57.414Z,7.40
2023-03-13T02:55:36.817Z,7.40
2023-03-13T02:58:03.505Z,7.30
2023-03-13T03:00:30.291Z,7.40
2023-03-13T03:02:57.219Z,7.40
2023-03-13T03:05:24.523Z,7.40
2023-03-13T03:07:51.746Z,8.00
2023-03-13T03:10:19.348Z,7.50
2023-03-13T03:12:46.337Z,7.50
2023-03-13T03:15:13.587Z,7.70
2023-03-13T03:17:40.845Z,7.50
2023-03-13T03:20:11.837Z,7.50
2023-03-13T03:22:40.722Z,7.50
2023-03-13T03:25:09.215Z,7.50
2023-03-13T03:27:36.483Z,7.50
2023-03-13T03:30:05.390Z,7.50
2023-03-13T03:32:32.502Z,7.50
2023-03-13T03:34:59.224Z,7.50
2023-03-13T03:37:25.936Z,7.50
2023-03-13T03:39:52.809Z,7.60
2023-03-13T03:42:19.547Z,7.60
2023-03-13T03:44:46.234Z,7.60
2023-03-13T03:47:12.948Z,7.60
2023-03-13T03:49:40.028Z,7.60
2023-03-13T03:52:07.002Z,7.70
2023-03-13T03:54:33.796Z,7.70
2023-03-13T03:57:00.562Z,7.70
2023-03-13T03:59:27.316Z,7.70
2023-03-13T04:01:54.063Z,7.70
2023-03-13T04:04:20.991Z,7.80
2023-03-13T04:06:47.691Z,7.80
2023-03-13T04:09:14.627Z,7.80
2023-03-13T04:11:41.276Z,7.80
2023-03-13T04:14:08.080Z,7.80
2023-03-13T04:16:35.152Z,7.70
2023-03-13T04:19:01.915Z,7.80
2023-03-13T04:21:28.598Z,7.80
2023-03-13T04:23:55.627Z,7.80
2023-03-13T04:26:22.291Z,7.80
2023-03-13T04:28:48.951Z,7.80
2023-03-13T04:31:18.844Z,7.70
2023-03-13T04:33:45.789Z,7.80
2023-03-13T04:36:12.518Z,7.80
2023-03-13T04:38:39.265Z,7.80
2023-03-13T04:41:06.011Z,7.80
2023-03-13T04:43:32.690Z,7.80
2023-03-13T04:45:59.449Z,7.80
2023-03-13T04:48:26.110Z,7.80
2023-03-13T04:50:52.856Z,7.80
2023-03-13T04:53:19.578Z,7.80
2023-03-13T04:55:48.492Z,7.80
2023-03-13T04:58:15.198Z,7.80
2023-03-13T05:00:41.909Z,7.80
2023-03-13T05:03:08.880Z,7.80
2023-03-13T05:05:36.195Z,7.80
2023-03-13T05:08:03.570Z,7.80
2023-03-13T05:10:30.524Z,7.80
2023-03-13T05:12:57.203Z,7.80
2023-03-13T05:15:23.905Z,7.80
2023-03-13T05:17:51.665Z,7.70
2023-03-13T05:20:19.976Z,7.80
2023-03-13T05:22:46.717Z,7.80
2023-03-13T05:25:13.439Z,7.80
2023-03-13T05:27:40.080Z,7.80
2023-03-13T05:30:07.495Z,7.80
2023-03-13T05:32:34.194Z,7.80
2023-03-13T05:35:00.914Z,7.80
2023-03-13T05:37:27.638Z,7.80
2023-03-13T05:39:54.368Z,7.80
2023-03-13T05:42:21.100Z,7.90
2023-03-13T05:44:47.861Z,7.80
2023-03-13T05:47:14.643Z,7.80
2023-03-13T05:49:41.333Z,7.90
2023-03-13T05:52:08.162Z,7.80
2023-03-13T05:54:34.908Z,7.80
2023-03-13T05:57:01.610Z,8.10
2023-03-13T05:59:28.231Z,7.80
2023-03-13T06:01:54.936Z,7.90
2023-03-13T06:04:21.680Z,7.90
2023-03-13T06:06:48.552Z,7.90
2023-03-13T06:09:15.274Z,7.90
2023-03-13T06:11:42.488Z,7.90
2023-03-13T06:14:09.224Z,8.00
2023-03-13T06:16:35.944Z,8.00
2023-03-13T06:19:02.734Z,8.00
2023-03-13T06:21:29.691Z,8.10
2023-03-13T06:23:56.504Z,8.10
2023-03-13T06:26:25.640Z,8.10
2023-03-13T06:28:52.613Z,8.20
2023-03-13T06:31:19.370Z,8.20
2023-03-13T06:33:46.099Z,8.30
2023-03-13T06:36:13.160Z,8.30
2023-03-13T06:38:39.828Z,8.30
2023-03-13T06:41:06.555Z,8.30
2023-03-13T06:43:33.961Z,8.30
2023-03-13T06:46:05.173Z,8.30
2023-03-13T06:48:32.112Z,8.40
2023-03-13T06:50:58.851Z,8.30
2023-03-13T06:53:25.589Z,8.30
2023-03-13T06:55:52.336Z,8.30
2023-03-13T06:58:31.566Z,8.40
2023-03-13T07:01:05.671Z,8.30
2023-03-13T07:03:32.438Z,8.30
2023-03-13T07:05:59.918Z,8.40
2023-03-13T07:08:27.663Z,8.50
2023-03-13T07:10:58.370Z,8.50
2023-03-13T07:13:25.272Z,9.30
2023-03-13T07:15:52.014Z,8.60
2023-03-13T07:18:18.725Z,8.60
2023-03-13T07:20:45.581Z,8.70
2023-03-13T07:23:12.260Z,8.70
2023-03-13T07:25:38.992Z,8.80
2023-03-13T07:28:05.703Z,8.90
2023-03-13T07:30:32.369Z,8.90
2023-03-13T07:32:59.169Z,9.00
2023-03-13T07:35:25.963Z,9.10
2023-03-13T07:37:52.689Z,9.00
2023-03-13T07:40:19.494Z,9.10
2023-03-13T07:42:46.201Z,9.10
2023-03-13T07:45:13.489Z,9.10
2023-03-13T07:47:40.265Z,9.20
2023-03-13T07:50:08.236Z,9.20
2023-03-13T07:52:35.008Z,9.30
2023-03-13T07:55:01.759Z,9.40
2023-03-13T07:57:28.495Z,9.40
2023-03-13T07:59:55.202Z,9.40
2023-03-13T08:02:21.960Z,9.50
2023-03-13T08:04:52.651Z,9.60
2023-03-13T08:07:19.340Z,9.60
2023-03-13T08:09:46.184Z,9.70
2023-03-13T08:12:12.991Z,9.80
2023-03-13T08:14:39.707Z,9.80
2023-03-13T08:17:06.410Z,9.90
2023-03-13T08:19:33.165Z,9.90
2023-03-13T08:21:59.846Z,9.90
2023-03-13T08:24:26.786Z,10.00
2023-03-13T08:26:53.454Z,10.00
2023-03-13T08:29:20.132Z,10.00
2023-03-13T08:31:48.951Z,10.00
2023-03-13T08:34:17.402Z,10.10
2023-03-13T08:36:44.594Z,10.10
2023-03-13T08:39:13.572Z,10.20
2023-03-13T08:41:41.410Z,10.20
2023-03-13T08:44:11.304Z,10.20
2023-03-13T08:46:38.855Z,10.20
2023-03-13T08:49:07.116Z,10.40
2023-03-13T08:51:34.631Z,10.50
2023-03-13T08:54:02.204Z,10.60
2023-03-13T08:56:30.704Z,10.60
2023-03-13T08:59:00.184Z,10.80
2023-03-13T09:01:29.775Z,11.00
2023-03-13T09:03:57.600Z,11.10
2023-03-13T09:06:24.691Z,11.10
2023-03-13T09:08:51.592Z,11.10
2023-03-13T09:11:21.447Z,11.40
2023-03-13T09:13:50.239Z,11.60
2023-03-13T09:16:20.296Z,11.60
2023-03-13T09:18:47.145Z,11.70
2023-03-13T09:21:17.657Z,11.70
2023-03-13T09:23:44.349Z,11.80
2023-03-13T09:26:12.129Z,11.90
2023-03-13T09:28:38.920Z,11.90
2023-03-13T09:31:10.293Z,12.10
2023-03-13T09:33:38.190Z,12.10
2023-03-13T09:36:05.925Z,12.10
2023-03-13T09:38:32.881Z,12.20
2023-03-13T09:41:19.189Z,12.20
2023-03-13T09:44:11.937Z,12.10
2023-03-13T09:46:41.472Z,12.10
2023-03-13T09:49:31.958Z,12.00
2023-03-13T09:52:16.483Z,12.10
2023-03-13T09:54:51.862Z,12.30
2023-03-13T09:57:34.520Z,12.50
2023-03-13T10:00:12.925Z,12.60
2023-03-13T10:02:43.264Z,12.80
2023-03-13T10:05:12.680Z,12.90
2023-03-13T10:07:39.401Z,12.90
2023-03-13T10:10:17.976Z,12.90
2023-03-13T10:12:46.996Z,12.90
2023-03-13T10:15:28.703Z,13.00
2023-03-13T10:17:55.860Z,13.10
2023-03-13T10:20:35.768Z,13.20
2023-03-13T10:23:12.316Z,13.40
2023-03-13T10:25:40.043Z,13.50
2023-03-13T10:32:00.569Z,13.70
2023-03-13T10:34:47.488Z,13.80
2023-03-13T10:37:16.543Z,14.10
2023-03-13T10:39:43.167Z,14.10
2023-03-13T10:42:30.082Z,14.30
2023-03-13T10:45:06.188Z,14.40
2023-03-13T10:47:35.014Z,14.60
2023-03-13T10:50:04.114Z,14.80
2023-03-13T10:52:36.038Z,15.10
2023-03-13T10:55:10.937Z,15.20
2023-03-13T10:57:38.552Z,15.40
2023-03-13T11:00:29.197Z,15.50
2023-03-13T11:02:56.326Z,15.70
2023-03-13T11:05:28.769Z,15.60
2023-03-13T11:07:55.514Z,15.70
2023-03-13T11:10:26.121Z,15.80
2023-03-13T11:12:55.405Z,16.00
2023-03-13T11:15:35.520Z,16.10
2023-03-13T11:18:31.407Z,16.20
2023-03-13T11:21:12.149Z,16.30
2023-03-13T11:23:50.257Z,16.40
2023-03-13T11:26:24.802Z,16.40
2023-03-13T11:29:00.803Z,16.60
2023-03-13T11:31:39.221Z,16.50
2023-03-13T11:34:19.851Z,16.40
2023-03-13T11:36:58.921Z,16.30
2023-03-13T11:39:58.027Z,16.40
2023-03-13T11:42:42.778Z,16.50
2023-03-13T11:45:28.614Z,16.50
2023-03-13T11:48:14.471Z,16.40
2023-03-13T11:50:52.342Z,16.50
2023-03-13T11:53:42.467Z,16.50
2023-03-13T11:56:09.161Z,16.60
2023-03-13T11:59:16.461Z,16.70
2023-03-13T12:02:18.762Z,16.80
2023-03-13T12:04:59.880Z,17.10
2023-03-13T12:07:45.365Z,17.40
2023-03-13T12:10:16.072Z,17.60
2023-03-13T12:12:51.011Z,17.90
2023-03-13T12:15:29.925Z,17.80
2023-03-13T12:18:22.925Z,17.70
2023-03-13T12:21:04.496Z,17.40
2023-03-13T12:24:10.506Z,17.10
2023-03-13T12:27:02.597Z,16.90
2023-03-13T12:29:32.030Z,17.10
2023-03-13T12:32:14.481Z,17.30
2023-03-13T12:34:55.545Z,17.60
2023-03-13T12:37:36.889Z,17.70
2023-03-13T12:40:29.309Z,17.70
2023-03-13T12:42:58.195Z,17.90
2023-03-13T12:45:26.625Z,18.10
2023-03-13T12:47:59.288Z,18.30
2023-03-13T12:50:44.446Z,18.30
2023-03-13T12:53:29.797Z,18.50
2023-03-13T12:56:14.168Z,18.30
2023-03-13T12:58:53.419Z,18.50
2023-03-13T13:01:30.343Z,18.60
2023-03-13T13:04:06.246Z,18.60
2023-03-13T13:07:20.281Z,18.50
2023-03-13T13:10:10.070Z,18.30
2023-03-13T13:12:39.626Z,18.30
2023-03-13T13:15:21.749Z,18.40
2023-03-13T13:18:00.301Z,18.50
2023-03-13T13:20:31.685Z,18.50
2023-03-13T13:23:18.304Z,18.80
2023-03-13T13:25:44.975Z,19.10
2023-03-13T13:28:23.736Z,19.20
2023-03-13T13:30:54.544Z,19.30
2023-03-13T13:33:28.280Z,19.20
2023-03-13T13:36:10.143Z,19.30
2023-03-13T13:38:40.451Z,19.50
2023-03-13T13:41:10.334Z,19.60
2023-03-13T13:43:38.203Z,19.50
2023-03-13T13:46:33.024Z,19.50
2023-03-13T13:49:06.720Z,19.40
2023-03-13T13:51:41.071Z,19.30
2023-03-13T13:54:26.607Z,19.40
2023-03-13T13:56:59.650Z,19.60
2023-03-13T13:59:39.792Z,20.60
2023-03-13T14:02:10.598Z,20.90
2023-03-13T14:04:51.333Z,20.90
2023-03-13T14:07:36.794Z,20.70
2023-03-13T14:10:06.715Z,20.30
2023-03-13T14:12:36.238Z,20.00
2023-03-13T14:15:12.513Z,19.60
2023-03-13T14:17:41.687Z,19.60
2023-03-13T14:20:31.480Z,19.40
2023-03-13T14:23:07.555Z,19.50
2023-03-13T14:25:43.917Z,19.50
2023-03-13T14:28:38.945Z,19.70
2023-03-13T14:31:05.876Z,19.90
2023-03-13T14:33:34.109Z,20.00
2023-03-13T14:36:01.394Z,19.90
2023-03-13T14:38:33.586Z,19.90
2023-03-13T14:41:00.688Z,19.90
2023-03-13T14:43:40.433Z,19.80
2023-03-13T14:46:24.098Z,19.60
2023-03-13T14:48:55.688Z,19.40
2023-03-13T14:51:26.617Z,19.20
2023-03-13T14:53:55.809Z,19.00
2023-03-13T14:56:38.801Z,19.00
2023-03-13T14:59:23.488Z,19.10
2023-03-13T15:02:04.622Z,19.20
2023-03-13T15:05:00.064Z,19.10
2023-03-13T15:07:40.683Z,18.90
2023-03-13T15:10:33.406Z,18.70
2023-03-13T15:13:13.701Z,18.60
2023-03-13T15:15:40.463Z,18.60
2023-03-13T15:18:19.480Z,18.70
2023-03-13T15:20:57.534Z,18.90
2023-03-13T15:23:24.967Z,19.20
2023-03-13T15:25:51.767Z,19.00
2023-03-13T15:28:21.547Z,19.10
2023-03-13T15:30:51.266Z,18.90
2023-03-13T15:33:20.868Z,18.80
2023-03-13T15:35:47.987Z,18.80
2023-03-13T15:38:20.626Z,18.80
2023-03-13T15:40:47.745Z,18.60
2023-03-13T15:43:15.090Z,18.60
2023-03-13T15:45:44.198Z,18.60
2023-03-13T15:48:22.373Z,18.60
2023-03-13T15:50:54.982Z,18.50
2023-03-13T15:53:26.860Z,18.50
2023-03-13T15:55:55.795Z,18.50
2023-03-13T15:58:23.152Z,18.50
2023-03-13T16:00:49.908Z,18.50
2023-03-13T16:03:22.449Z,18.40
2023-03-13T16:05:49.451Z,18.40
2023-03-13T16:08:34.349Z,18.30
2023-03-13T16:11:01.891Z,18.30
2023-03-13T16:13:28.582Z,18.10
2023-03-13T16:15:55.465Z,18.10
2023-03-13T16:18:24.757Z,18.00
2023-03-13T16:20:52.365Z,17.90
2023-03-13T16:23:19.098Z,17.70
2023-03-13T16:25:47.373Z,17.50
2023-03-13T16:28:15.097Z,17.40
2023-03-13T16:30:47.564Z,17.30
2023-03-13T16:33:14.473Z,17.20
2023-03-13T16:35:41.476Z,17.10
2023-03-13T16:38:11.221Z,17.10
2023-03-13T16:40:38.157Z,16.90
2023-03-13T16:43:04.852Z,17.00
2023-03-13T16:45:31.548Z,16.90
2023-03-13T16:47:58.265Z,16.90
2023-03-13T16:50:24.960Z,16.80
2023-03-13T16:52:52.591Z,16.70
2023-03-13T16:55:20.374Z,16.70
2023-03-13T16:57:47.329Z,16.50
2023-03-13T17:00:21.406Z,16.40
2023-03-13T17:02:48.526Z,16.30
2023-03-13T17:05:16.231Z,16.50
2023-03-13T17:07:44.806Z,16.20
2023-03-13T17:10:33.175Z,16.10
2023-03-13T17:13:00.546Z,16.00
2023-03-13T17:15:28.902Z,16.00
2023-03-13T17:17:56.061Z,15.90
2023-03-13T17:20:28.961Z,15.80
2023-03-13T17:23:00.973Z,15.70
2023-03-13T17:25:27.797Z,15.70
2023-03-13T17:27:54.783Z,15.60
2023-03-13T17:30:24.923Z,15.50
2023-03-13T17:32:52.119Z,15.40
2023-03-13T17:35:20.075Z,15.40
2023-03-13T17:37:47.793Z,15.40
2023-03-13T17:40:19.606Z,15.30
2023-03-13T17:42:46.428Z,15.40
2023-03-13T17:45:14.277Z,15.30
2023-03-13T17:47:41.281Z,15.30
2023-03-13T17:50:23.569Z,15.20
2023-03-13T17:52:50.525Z,15.20
2023-03-13T17:55:17.349Z,15.10
2023-03-13T17:57:44.093Z,15.10
2023-03-13T18:00:20.435Z,15.10
2023-03-13T18:02:47.331Z,15.10
2023-03-13T18:05:14.218Z,15.10
2023-03-13T18:07:44.182Z,15.00
2023-03-13T18:10:20.534Z,15.00
2023-03-13T18:12:48.120Z,14.90
2023-03-13T18:15:14.958Z,14.80
2023-03-13T18:17:41.934Z,14.70
2023-03-13T18:20:18.997Z,15.00
2023-03-13T18:22:46.816Z,14.60
2023-03-13T18:25:14.395Z,14.30
2023-03-13T18:27:41.569Z,14.50
2023-03-13T18:30:16.691Z,14.40
2023-03-13T18:32:43.558Z,14.40
2023-03-13T18:35:10.655Z,14.30
2023-03-13T18:37:37.424Z,14.30
2023-03-13T18:40:11.366Z,14.40
2023-03-13T18:42:38.121Z,14.30
2023-03-13T18:45:05.603Z,14.20
2023-03-13T18:47:32.343Z,14.00
2023-03-13T18:49:59.093Z,14.00
2023-03-13T18:52:25.825Z,13.90
2023-03-13T18:54:52.577Z,13.90
2023-03-13T18:57:20.171Z,13.90
2023-03-13T18:59:47.007Z,13.80
2023-03-13T19:02:18.777Z,13.80
2023-03-13T19:04:47.241Z,13.70
2023-03-13T19:07:26.137Z,13.60
2023-03-13T19:09:54.298Z,13.60
2023-03-13T19:12:21.011Z,13.50
2023-03-13T19:14:47.828Z,13.60
2023-03-13T19:17:26.912Z,13.50
2023-03-13T19:19:57.294Z,13.20
2023-03-13T19:22:25.141Z,13.10
2023-03-13T19:24:51.956Z,13.00
2023-03-13T19:27:18.874Z,13.70
2023-03-13T19:29:46.232Z,13.00
2023-03-13T19:32:18.602Z,13.00
2023-03-13T19:34:45.636Z,13.20
2023-03-13T19:37:14.104Z,13.20
2023-03-13T19:39:41.778Z,13.30
2023-03-13T19:42:08.822Z,13.50
2023-03-13T19:44:36.410Z,13.60
2023-03-13T19:47:04.733Z,14.00
2023-03-13T19:49:31.543Z,13.80
2023-03-13T19:51:58.737Z,14.00
2023-03-13T19:54:25.454Z,14.00
2023-03-13T19:56:53.558Z,14.10
2023-03-13T19:59:23.497Z,14.20
2023-03-13T20:01:50.568Z,14.20
2023-03-13T20:04:17.404Z,14.10
2023-03-13T20:06:45.692Z,14.10
2023-03-13T20:09:16.303Z,14.00
2023-03-13T20:11:44.294Z,14.00
2023-03-13T20:14:11.499Z,13.90
2023-03-13T20:16:38.689Z,13.90
2023-03-13T20:19:05.741Z,14.40
2023-03-13T20:21:36.945Z,14.00
2023-03-13T20:24:04.178Z,13.90
2023-03-13T20:26:31.268Z,13.90
2023-03-13T20:28:58.909Z,14.00
2023-03-13T20:31:29.462Z,14.20
2023-03-13T20:33:57.394Z,14.00
2023-03-13T20:36:24.654Z,13.60
2023-03-13T20:38:52.175Z,14.00
2023-03-13T20:41:24.870Z,14.00
2023-03-13T20:43:52.677Z,13.90
2023-03-13T20:46:19.924Z,13.90
2023-03-13T20:48:46.764Z,13.80
2023-03-13T20:51:13.575Z,14.10
2023-03-13T20:53:42.454Z,13.70
2023-03-13T20:56:10.536Z,14.10
2023-03-13T20:58:37.881Z,13.70
2023-03-13T21:01:05.939Z,13.40
2023-03-13T21:03:35.604Z,13.10
2023-03-13T21:06:10.891Z,12.70
2023-03-13T21:08:38.933Z,12.40
2023-03-13T21:11:17.473Z,12.30
2023-03-13T21:13:44.617Z,12.20
2023-03-13T21:16:13.350Z,12.10
2023-03-13T21:18:40.422Z,11.90
2023-03-13T21:21:17.234Z,11.70
2023-03-13T21:23:44.824Z,11.50
2023-03-13T21:26:12.240Z,11.30
2023-03-13T21:28:39.885Z,11.20
2023-03-13T21:31:10.913Z,11.10
2023-03-13T21:33:38.454Z,11.10
2023-03-13T21:36:05.693Z,11.10
2023-03-13T21:38:32.501Z,11.10
2023-03-13T21:40:59.380Z,11.10
2023-03-13T21:43:28.203Z,11.00
2023-03-13T21:45:56.937Z,11.10
2023-03-13T21:48:23.640Z,11.00
2023-03-13T21:50:53.861Z,11.00
2023-03-13T21:53:20.921Z,11.00
2023-03-13T21:55:51.368Z,11.00
2023-03-13T21:58:18.754Z,10.90
2023-03-13T22:00:45.790Z,10.90
2023-03-13T22:03:12.846Z,10.90
2023-03-13T22:05:54.501Z,10.90
2023-03-13T22:08:21.281Z,10.90
2023-03-13T22:10:49.710Z,10.90
2023-03-13T22:13:16.764Z,10.90
2023-03-13T22:15:46.266Z,10.90
2023-03-13T22:18:14.713Z,10.90
2023-03-13T22:20:42.232Z,10.90
2023-03-13T22:23:10.584Z,10.80
2023-03-13T22:25:44.438Z,10.80
2023-03-13T22:28:11.695Z,10.70
2023-03-13T22:30:39.171Z,10.60
2023-03-13T22:33:07.351Z,10.60
2023-03-13T22:35:35.154Z,10.70
2023-03-13T22:38:01.940Z,10.70
2023-03-13T22:40:28.755Z,10.70
2023-03-13T22:42:55.645Z,10.70
2023-03-13T22:45:23.279Z,10.70
2023-03-13T22:47:50.069Z,10.70
2023-03-13T22:50:18.828Z,10.70
2023-03-13T22:52:45.605Z,10.70
2023-03-13T22:55:12.517Z,10.70
2023-03-13T22:57:39.290Z,10.70
2023-03-13T23:00:07.240Z,10.60
2023-03-13T23:02:33.977Z,10.50
2023-03-13T23:05:01.415Z,10.40
2023-03-13T23:07:29.664Z,10.40
2023-03-13T23:09:59.204Z,10.40
2023-03-13T23:12:26.895Z,10.30
2023-03-13T23:14:55.767Z,10.20
2023-03-13T23:17:22.476Z,10.20
2023-03-13T23:19:49.216Z,10.20
2023-03-13T23:22:18.090Z,10.10
2023-03-13T23:24:45.055Z,10.10
2023-03-13T23:27:12.154Z,10.10
2023-03-13T23:29:39.388Z,10.10
2023-03-13T23:32:07.042Z,10.00
2023-03-13T23:34:35.838Z,9.90
2023-03-13T23:37:02.907Z,9.80
2023-03-13T23:39:30.007Z,9.70
2023-03-13T23:41:56.784Z,9.50
2023-03-13T23:44:23.676Z,9.30
2023-03-13T23:46:50.395Z,9.40
2023-03-13T23:49:17.428Z,9.00
2023-03-13T23:51:44.458Z,8.90
2023-03-13T23:54:11.213Z,8.80
2023-03-13T23:56:37.925Z,8.70
2023-03-13T23:59:05.133Z,8.70
